createdAt,value
2022-11-12T00:00:17.205Z,97092
2022-11-12T00:01:25.927Z,97089
2022-11-12T00:02:34.684Z,97091
2022-11-12T00:03:44.367Z,97088
2022-11-12T00:04:52.262Z,97091
2022-11-12T00:06:00.969Z,97090
2022-11-12T00:07:10.911Z,97090
2022-11-12T00:08:19.470Z,97087
2022-11-12T00:09:29.270Z,97088
2022-11-12T00:10:39.037Z,97087
2022-11-12T00:11:47.755Z,97084
2022-11-12T00:12:57.484Z,97088
2022-11-12T00:14:07.238Z,97090
2022-11-12T00:15:15.977Z,97086
2022-11-12T00:16:25.780Z,97084
2022-11-12T00:17:35.556Z,97082
2022-11-12T00:18:45.278Z,97080
2022-11-12T00:19:54.989Z,97084
2022-11-12T00:21:03.765Z,97083
2022-11-12T00:22:13.526Z,97088
2022-11-12T00:23:23.351Z,97087
2022-11-12T00:24:33.019Z,97089
2022-11-12T00:25:42.798Z,97088
2022-11-12T00:26:52.538Z,97083
2022-11-12T00:28:01.298Z,97082
2022-11-12T00:29:10.994Z,97080
2022-11-12T00:30:18.744Z,97083
2022-11-12T00:31:27.483Z,97081
2022-11-12T00:32:37.207Z,97084
2022-11-12T00:33:45.956Z,97086
2022-11-12T00:34:54.683Z,97083
2022-11-12T00:36:05.389Z,97085
2022-11-12T00:37:13.087Z,97083
2022-11-12T00:38:22.966Z,97086
2022-11-12T00:39:31.709Z,97081
2022-11-12T00:40:41.337Z,97088
2022-11-12T00:41:51.113Z,97083
2022-11-12T00:42:59.887Z,97087
2022-11-12T00:44:09.626Z,97086
2022-11-12T00:45:19.397Z,97086
2022-11-12T00:46:28.116Z,97083
2022-11-12T00:47:37.912Z,97080
2022-11-12T00:48:46.840Z,97081
2022-11-12T00:49:55.522Z,97082
2022-11-12T00:51:05.275Z,97083
2022-11-12T00:52:13.992Z,97078
2022-11-12T00:53:22.709Z,97080
2022-11-12T00:54:31.394Z,97080
2022-11-12T00:55:40.292Z,97078
2022-11-12T00:56:50.956Z,97077
2022-11-12T00:58:00.696Z,97075
2022-11-12T00:59:10.386Z,97076
2022-11-12T01:00:20.062Z,97075
2022-11-12T01:01:27.862Z,97075
2022-11-12T01:02:42.563Z,97080
2022-11-12T01:03:47.248Z,97085
2022-11-12T01:04:56.916Z,97080
2022-11-12T01:06:06.631Z,97080
2022-11-12T01:07:14.402Z,97079
2022-11-12T01:08:24.519Z,97077
2022-11-12T01:09:33.815Z,97078
2022-11-12T01:10:43.769Z,97079
2022-11-12T01:11:53.361Z,97078
2022-11-12T01:13:02.037Z,97072
2022-11-12T01:14:11.775Z,97076
2022-11-12T01:15:21.508Z,97070
2022-11-12T01:16:30.225Z,97065
2022-11-12T01:17:39.919Z,97060
2022-11-12T01:18:49.669Z,97064
2022-11-12T01:19:59.385Z,97063
2022-11-12T01:21:09.042Z,97065
2022-11-12T01:22:17.773Z,97067
2022-11-12T01:23:27.520Z,97068
2022-11-12T01:24:36.270Z,97062
2022-11-12T01:25:46.139Z,97062
2022-11-12T01:26:54.719Z,97057
2022-11-12T01:28:04.397Z,97063
2022-11-12T01:29:12.125Z,97060
2022-11-12T01:30:20.796Z,97053
2022-11-12T01:31:30.640Z,97046
2022-11-12T01:32:39.403Z,97048
2022-11-12T01:33:49.135Z,97047
2022-11-12T01:34:56.803Z,97044
2022-11-12T01:36:05.591Z,97048
2022-11-12T01:37:15.321Z,97052
2022-11-12T01:38:23.368Z,97052
2022-11-12T01:39:31.753Z,97051
2022-11-12T01:40:40.425Z,97050
2022-11-12T01:41:50.280Z,97046
2022-11-12T01:42:59.899Z,97050
2022-11-12T01:44:07.636Z,97050
2022-11-12T01:45:17.390Z,97044
2022-11-12T01:46:27.053Z,97047
2022-11-12T01:47:34.769Z,97045
2022-11-12T01:48:44.505Z,97040
2022-11-12T01:49:56.249Z,97039
2022-11-12T01:51:02.009Z,97038
2022-11-12T01:52:11.678Z,97041
2022-11-12T01:53:19.449Z,97039
2022-11-12T01:54:28.175Z,97041
2022-11-12T01:55:37.903Z,97036
2022-11-12T01:56:45.657Z,97038
2022-11-12T02:14:04.612Z,97024
2022-11-12T02:15:13.168Z,97026
2022-11-12T02:16:20.850Z,97024
2022-11-12T02:17:30.602Z,97030
2022-11-12T02:18:39.400Z,97027
2022-11-12T02:19:47.101Z,97023
2022-11-12T02:20:55.760Z,97025
2022-11-12T02:22:04.445Z,97025
2022-11-12T02:23:14.125Z,97028
2022-11-12T02:24:23.841Z,97022
2022-11-12T02:25:32.512Z,97024
2022-11-12T02:26:46.353Z,97018
2022-11-12T02:27:55.046Z,97022
2022-11-12T02:29:04.724Z,97016
2022-11-12T02:30:14.540Z,97015
2022-11-12T02:31:23.079Z,97016
2022-11-12T02:32:31.754Z,97013
2022-11-12T02:33:41.442Z,97013
2022-11-12T02:34:48.138Z,97013
2022-11-12T02:35:56.946Z,97012
2022-11-12T02:37:05.608Z,97008
2022-11-12T02:38:14.268Z,97011
2022-11-12T02:39:23.967Z,97007
2022-11-12T02:40:32.648Z,97005
2022-11-12T02:41:41.331Z,97008
2022-11-12T02:42:50.015Z,97008
2022-11-12T02:43:57.695Z,97013
2022-11-12T02:45:06.373Z,97011
2022-11-12T02:46:15.157Z,97014
2022-11-12T02:47:22.787Z,97017
2022-11-12T02:48:32.462Z,97017
2022-11-12T02:49:41.221Z,97020
2022-11-12T02:50:49.886Z,97017
2022-11-12T02:51:59.563Z,97021
2022-11-12T02:53:08.272Z,97020
2022-11-12T02:54:16.947Z,97018
2022-11-12T02:55:26.716Z,97021
2022-11-12T02:56:35.368Z,97014
2022-11-12T02:57:45.060Z,97019
2022-11-12T02:58:53.472Z,97019
2022-11-12T03:00:02.275Z,97012
2022-11-12T03:01:11.991Z,97014
2022-11-12T03:02:21.811Z,97016
2022-11-12T03:03:30.375Z,97014
2022-11-12T03:04:39.065Z,97012
2022-11-12T03:05:48.724Z,97006
2022-11-12T03:06:58.589Z,97011
2022-11-12T03:08:07.200Z,97017
2022-11-12T03:09:15.859Z,97019
2022-11-12T03:10:25.554Z,97022
2022-11-12T03:11:33.202Z,97019
2022-11-12T03:12:40.869Z,97021
2022-11-12T03:13:49.532Z,97020
2022-11-12T03:14:58.233Z,97025
2022-11-12T03:16:07.944Z,97024
2022-11-12T03:17:15.633Z,97028
2022-11-12T03:18:25.812Z,97028
2022-11-12T03:19:34.980Z,97026
2022-11-12T03:20:43.644Z,97028
2022-11-12T03:21:51.551Z,97022
2022-11-12T03:23:00.223Z,97029
2022-11-12T03:24:08.873Z,97031
2022-11-12T03:25:19.661Z,97032
2022-11-12T03:26:31.736Z,97032
2022-11-12T03:27:37.029Z,97028
2022-11-12T03:28:45.713Z,97030
2022-11-12T03:29:53.452Z,97030
2022-11-12T03:31:02.110Z,97035
2022-11-12T03:32:10.772Z,97032
2022-11-12T03:33:20.517Z,97031
2022-11-12T03:34:30.374Z,97029
2022-11-12T03:35:38.924Z,97028
2022-11-12T03:36:47.595Z,97028
2022-11-12T03:37:57.274Z,97027
2022-11-12T03:39:05.961Z,97032
2022-11-12T03:40:14.640Z,97030
2022-11-12T03:41:22.309Z,97032
2022-11-12T03:42:30.976Z,97031
2022-11-12T03:43:40.780Z,97029
2022-11-12T03:44:48.501Z,97028
2022-11-12T03:45:57.177Z,97029
2022-11-12T03:47:06.844Z,97033
2022-11-12T03:48:15.557Z,97026
2022-11-12T03:49:24.214Z,97025
2022-11-12T03:50:34.018Z,97029
2022-11-12T03:51:43.568Z,97030
2022-11-12T03:52:52.234Z,97032
2022-11-12T03:53:59.905Z,97035
2022-11-12T03:55:08.561Z,97029
2022-11-12T03:56:18.250Z,97035
2022-11-12T03:57:26.926Z,97033
2022-11-12T03:58:35.593Z,97036
2022-11-12T03:59:44.261Z,97032
2022-11-12T04:00:52.975Z,97032
2022-11-12T04:02:02.646Z,97034
2022-11-12T04:03:10.389Z,97031
2022-11-12T04:04:19.051Z,97034
2022-11-12T04:05:28.724Z,97039
2022-11-12T04:06:38.572Z,97039
2022-11-12T04:07:47.075Z,97036
2022-11-12T04:08:56.753Z,97040
2022-11-12T04:10:05.413Z,97042
2022-11-12T04:11:15.111Z,97040
2022-11-12T04:12:23.819Z,97043
2022-11-12T04:13:32.503Z,97039
2022-11-12T04:14:42.224Z,97045
2022-11-12T04:15:49.946Z,97038
2022-11-12T04:16:59.622Z,97040
2022-11-12T04:18:09.318Z,97037
2022-11-12T04:19:17.996Z,97039
2022-11-12T04:20:27.687Z,97038
2022-11-12T04:21:36.347Z,97033
2022-11-12T04:22:46.138Z,97034
2022-11-12T04:23:54.718Z,97035
2022-11-12T04:25:03.559Z,97029
2022-11-12T04:26:13.256Z,97032
2022-11-12T04:27:22.900Z,97035
2022-11-12T04:28:31.579Z,97033
2022-11-12T04:29:41.241Z,97027
2022-11-12T04:30:49.938Z,97032
2022-11-12T04:31:59.659Z,97034
2022-11-12T04:33:08.326Z,97034
2022-11-12T04:34:16.992Z,97032
2022-11-12T04:35:26.654Z,97024
2022-11-12T04:36:35.352Z,97027
2022-11-12T04:37:45.081Z,97029
2022-11-12T04:38:53.804Z,97028
2022-11-12T04:40:02.359Z,97032
2022-11-12T04:41:12.030Z,97030
2022-11-12T04:42:19.729Z,97030
2022-11-12T04:43:28.385Z,97028
2022-11-12T04:44:38.079Z,97030
2022-11-12T04:45:46.770Z,97029
2022-11-12T04:46:55.445Z,97030
2022-11-12T04:48:04.130Z,97029
2022-11-12T04:49:13.795Z,97030
2022-11-12T04:50:23.468Z,97032
2022-11-12T04:51:31.125Z,97031
2022-11-12T04:52:39.782Z,97031
2022-11-12T04:53:49.603Z,97034
2022-11-12T04:54:59.393Z,97031
2022-11-12T04:56:08.964Z,97035
2022-11-12T04:57:17.681Z,97031
2022-11-12T04:58:26.718Z,97033
2022-11-12T04:59:36.003Z,97039
2022-11-12T05:00:45.672Z,97037
2022-11-12T05:01:54.358Z,97034
2022-11-12T05:03:04.073Z,97035
2022-11-12T05:04:13.737Z,97031
2022-11-12T05:05:23.443Z,97033
2022-11-12T05:06:33.084Z,97033
2022-11-12T05:07:41.774Z,97037
2022-11-12T05:08:51.450Z,97037
2022-11-12T05:10:00.157Z,97037
2022-11-12T05:11:12.751Z,97035
2022-11-12T05:12:19.517Z,97037
2022-11-12T05:13:28.222Z,97040
2022-11-12T05:14:36.901Z,97040
2022-11-12T05:15:46.640Z,97040
2022-11-12T05:16:55.322Z,97041
2022-11-12T05:18:04.066Z,97045
2022-11-12T05:19:11.738Z,97040
2022-11-12T05:20:20.413Z,97040
2022-11-12T05:21:30.096Z,97035
2022-11-12T05:22:45.843Z,97036
2022-11-12T05:23:51.510Z,97046
2022-11-12T05:25:01.174Z,97041
2022-11-12T05:26:09.920Z,97041
2022-11-12T05:27:19.703Z,97040
2022-11-12T05:28:28.752Z,97044
2022-11-12T05:29:37.086Z,97039
2022-11-12T05:30:46.848Z,97042
2022-11-12T05:31:54.638Z,97040
2022-11-12T05:33:03.295Z,97039
2022-11-12T05:34:11.978Z,97037
2022-11-12T05:35:22.632Z,97035
2022-11-12T05:36:32.320Z,97036
2022-11-12T05:37:40.003Z,97038
2022-11-12T05:38:49.664Z,97036
2022-11-12T05:39:59.372Z,97034
2022-11-12T05:41:07.042Z,97039
2022-11-12T05:42:15.756Z,97040
2022-11-12T05:43:25.576Z,97039
2022-11-12T05:44:34.115Z,97046
2022-11-12T05:45:43.837Z,97045
2022-11-12T05:46:52.570Z,97052
2022-11-12T05:48:01.260Z,97045
2022-11-12T05:49:10.956Z,97047
2022-11-12T05:50:20.654Z,97048
2022-11-12T05:51:30.332Z,97048
2022-11-12T05:52:39.017Z,97050
2022-11-12T05:53:47.674Z,97051
2022-11-12T05:54:57.420Z,97049
2022-11-12T05:56:05.050Z,97054
2022-11-12T05:57:13.742Z,97051
2022-11-12T05:58:23.737Z,97053
2022-11-12T05:59:33.221Z,97059
2022-11-12T06:00:41.782Z,97056
2022-11-12T06:01:50.473Z,97056
2022-11-12T06:03:00.269Z,97059
2022-11-12T06:04:09.930Z,97059
2022-11-12T06:05:17.625Z,97059
2022-11-12T06:06:26.305Z,97060
2022-11-12T06:07:36.010Z,97058
2022-11-12T06:08:44.722Z,97059
2022-11-12T06:09:53.487Z,97067
2022-11-12T06:11:03.423Z,97063
2022-11-12T06:12:13.103Z,97070
2022-11-12T06:13:22.797Z,97071
2022-11-12T06:14:30.512Z,97075
2022-11-12T06:15:40.338Z,97076
2022-11-12T06:16:49.942Z,97075
2022-11-12T06:17:59.617Z,97077
2022-11-12T06:19:09.282Z,97075
2022-11-12T06:20:17.979Z,97074
2022-11-12T06:21:26.645Z,97080
2022-11-12T06:22:35.313Z,97077
2022-11-12T06:23:43.994Z,97074
2022-11-12T06:24:53.700Z,97077
2022-11-12T06:26:01.492Z,97073
2022-11-12T06:27:10.166Z,97076
2022-11-12T06:28:19.866Z,97072
2022-11-12T06:29:27.520Z,97073
2022-11-12T06:30:37.254Z,97068
2022-11-12T06:31:47.100Z,97069
2022-11-12T06:32:55.692Z,97072
2022-11-12T06:34:04.413Z,97072
2022-11-12T06:35:12.100Z,97073
2022-11-12T06:36:20.812Z,97075
2022-11-12T06:37:30.494Z,97075
2022-11-12T06:38:38.142Z,97069
2022-11-12T06:39:46.802Z,97073
2022-11-12T06:40:55.497Z,97070
2022-11-12T06:42:05.171Z,97070
2022-11-12T06:43:14.868Z,97072
2022-11-12T06:44:22.669Z,97068
2022-11-12T06:45:32.241Z,97070
2022-11-12T06:46:41.933Z,97074
2022-11-12T06:47:50.736Z,97074
2022-11-12T06:49:00.452Z,97074
2022-11-12T06:50:10.189Z,97074
2022-11-12T06:51:16.852Z,97075
2022-11-12T06:52:26.590Z,97076
2022-11-12T06:53:35.283Z,97076
2022-11-12T06:54:44.002Z,97075
2022-11-12T06:55:53.703Z,97074
2022-11-12T06:57:02.366Z,97076
2022-11-12T06:58:12.040Z,97076
2022-11-12T06:59:21.754Z,97077
2022-11-12T07:00:29.431Z,97075
2022-11-12T07:01:38.113Z,97078
2022-11-12T07:02:46.768Z,97078
2022-11-12T07:03:56.600Z,97078
2022-11-12T07:05:05.181Z,97079
2022-11-12T07:06:13.868Z,97077
2022-11-12T07:07:22.556Z,97078
2022-11-12T07:08:32.210Z,97079
2022-11-12T07:09:40.911Z,97084
2022-11-12T07:10:49.589Z,97082
2022-11-12T07:11:58.290Z,97090
2022-11-12T07:13:07.966Z,97087
2022-11-12T07:14:17.714Z,97089
2022-11-12T07:15:25.400Z,97092
2022-11-12T07:16:34.101Z,97093
2022-11-12T07:17:43.795Z,97090
2022-11-12T07:18:51.478Z,97089
2022-11-12T07:20:03.788Z,97093
2022-11-12T07:21:10.869Z,97087
2022-11-12T07:22:19.528Z,97083
2022-11-12T07:23:29.275Z,97087
2022-11-12T07:24:36.926Z,97082
2022-11-12T07:25:46.648Z,97080
2022-11-12T07:26:56.324Z,97084
2022-11-12T07:28:04.021Z,97083
2022-11-12T07:29:20.510Z,97080
2022-11-12T07:30:24.486Z,97083
2022-11-12T07:31:33.147Z,97079
2022-11-12T07:32:46.014Z,97082
2022-11-12T07:33:53.523Z,97082
2022-11-12T07:35:03.447Z,97085
2022-11-12T07:36:13.016Z,97087
2022-11-12T07:37:21.687Z,97093
2022-11-12T07:38:29.578Z,97087
2022-11-12T07:39:38.048Z,97092
2022-11-12T07:40:46.756Z,97091
2022-11-12T07:41:56.432Z,97086
2022-11-12T07:43:04.138Z,97087
2022-11-12T07:44:12.797Z,97089
2022-11-12T07:45:22.480Z,97089
2022-11-12T07:46:30.307Z,97089
2022-11-12T07:47:39.998Z,97089
2022-11-12T07:48:49.684Z,97088
2022-11-12T07:49:58.451Z,97080
2022-11-12T07:51:08.272Z,97080
2022-11-12T07:52:17.836Z,97085
2022-11-12T07:53:26.507Z,97081
2022-11-12T07:54:36.194Z,97081
2022-11-12T07:55:45.903Z,97080
2022-11-12T07:56:55.591Z,97082
2022-11-12T07:58:05.310Z,97084
2022-11-12T07:59:13.977Z,97078
2022-11-12T08:00:22.654Z,97080
2022-11-12T08:01:32.366Z,97081
2022-11-12T08:02:40.007Z,97085
2022-11-12T08:03:49.691Z,97086
2022-11-12T08:04:58.400Z,97084
2022-11-12T08:06:08.063Z,97085
2022-11-12T08:07:17.033Z,97082
2022-11-12T08:08:26.674Z,97082
2022-11-12T08:09:35.104Z,97089
2022-11-12T08:10:44.828Z,97088
2022-11-12T08:11:53.494Z,97090
2022-11-12T08:13:02.257Z,97092
2022-11-12T08:14:12.922Z,97091
2022-11-12T08:15:20.635Z,97094
2022-11-12T08:16:30.309Z,97094
2022-11-12T08:17:37.963Z,97095
2022-11-12T08:18:47.645Z,97091
2022-11-12T08:19:55.417Z,97088
2022-11-12T08:21:05.058Z,97091
2022-11-12T08:22:14.752Z,97098
2022-11-12T08:23:23.537Z,97095
2022-11-12T08:24:33.109Z,97095
2022-11-12T08:25:41.763Z,97101
2022-11-12T08:26:50.499Z,97094
2022-11-12T08:28:00.168Z,97093
2022-11-12T08:29:08.772Z,97093
2022-11-12T08:30:17.510Z,97095
2022-11-12T08:31:27.247Z,97100
2022-11-12T08:32:35.042Z,97106
2022-11-12T08:33:43.715Z,97099
2022-11-12T08:34:53.424Z,97102
2022-11-12T08:36:02.092Z,97103
2022-11-12T08:37:11.769Z,97101
2022-11-12T08:38:19.579Z,97106
2022-11-12T08:39:29.358Z,97104
2022-11-12T08:40:38.945Z,97102
2022-11-12T08:41:47.608Z,97107
2022-11-12T08:42:56.276Z,97105
2022-11-12T08:44:08.450Z,97104
2022-11-12T08:45:14.614Z,97106
2022-11-12T08:46:24.306Z,97111
2022-11-12T08:47:31.957Z,97107
2022-11-12T08:48:41.620Z,97109
2022-11-12T08:49:51.336Z,97110
2022-11-12T08:50:59.990Z,97111
2022-11-12T08:52:09.664Z,97111
2022-11-12T08:53:17.319Z,97106
2022-11-12T08:54:26.986Z,97105
2022-11-12T08:55:36.814Z,97103
2022-11-12T08:56:46.355Z,97099
2022-11-12T08:57:56.001Z,97099
2022-11-12T08:59:07.440Z,97095
2022-11-12T09:00:13.320Z,97096
2022-11-12T09:01:23.046Z,97096
2022-11-12T09:02:31.681Z,97096
2022-11-12T09:03:40.342Z,97096
2022-11-12T09:04:50.011Z,97094
2022-11-12T09:05:58.668Z,97099
2022-11-12T09:07:09.558Z,97093
2022-11-12T09:08:19.107Z,97097
2022-11-12T09:09:26.677Z,97096
2022-11-12T09:10:36.362Z,97100
2022-11-12T09:11:46.142Z,97100
2022-11-12T09:12:55.715Z,97099
2022-11-12T09:14:05.450Z,97099
2022-11-12T09:16:21.669Z,97103
2022-11-12T09:17:31.330Z,97104
2022-11-12T09:18:39.069Z,97103
2022-11-12T09:19:47.718Z,97105
2022-11-12T09:20:56.383Z,97103
2022-11-12T09:22:06.072Z,97108
2022-11-12T09:23:15.793Z,97107
2022-11-12T09:24:22.469Z,97106
2022-11-12T09:25:31.167Z,97103
2022-11-12T09:26:40.864Z,97107
2022-11-12T09:27:49.632Z,97108
2022-11-12T09:28:59.192Z,97111
2022-11-12T09:30:07.881Z,97114
2022-11-12T09:31:17.525Z,97111
2022-11-12T09:32:27.188Z,97112
2022-11-12T09:33:35.901Z,97116
2022-11-12T09:34:44.712Z,97119
2022-11-12T09:35:54.503Z,97115
2022-11-12T09:37:03.217Z,97120
2022-11-12T09:38:12.895Z,97118
2022-11-12T09:39:22.561Z,97115
2022-11-12T09:40:31.232Z,97118
2022-11-12T09:41:40.969Z,97117
2022-11-12T09:42:49.637Z,97114
2022-11-12T09:43:59.494Z,97111
2022-11-12T09:45:09.200Z,97117
2022-11-12T09:46:32.317Z,97118
2022-11-12T09:47:27.600Z,97118
2022-11-12T09:48:36.267Z,97117
2022-11-12T09:49:45.914Z,97115
2022-11-12T09:50:55.587Z,97116
2022-11-12T09:52:04.251Z,97120
2022-11-12T09:53:12.915Z,97116
2022-11-12T09:54:22.607Z,97111
2022-11-12T09:55:31.282Z,97113
2022-11-12T09:56:39.952Z,97110
2022-11-12T09:57:48.614Z,97109
2022-11-12T09:58:58.293Z,97108
2022-11-12T10:00:08.084Z,97113
2022-11-12T10:01:17.686Z,97115
2022-11-12T10:02:26.315Z,97116
2022-11-12T10:03:36.981Z,97110
2022-11-12T10:04:44.707Z,97115
2022-11-12T10:05:54.369Z,97117
2022-11-12T10:07:03.136Z,97112
2022-11-12T10:08:11.743Z,97115
2022-11-12T10:09:21.428Z,97112
2022-11-12T10:10:30.123Z,97110
2022-11-12T10:11:38.810Z,97108
2022-11-12T10:12:47.477Z,97110
2022-11-12T10:13:55.138Z,97110
2022-11-12T10:15:04.879Z,97112
2022-11-12T10:16:13.708Z,97108
2022-11-12T10:17:22.259Z,97104
2022-11-12T10:18:30.180Z,97106
2022-11-12T10:19:39.616Z,97104
2022-11-12T10:20:49.281Z,97101
2022-11-12T10:21:57.985Z,97098
2022-11-12T10:23:06.682Z,97095
2022-11-12T10:24:16.610Z,97094
2022-11-12T10:25:24.344Z,97088
2022-11-12T10:26:33.011Z,97086
2022-11-12T10:27:41.682Z,97086
2022-11-12T10:28:50.343Z,97085
2022-11-12T10:30:00.038Z,97089
2022-11-12T10:31:07.696Z,97077
2022-11-12T10:32:17.468Z,97078
2022-11-12T10:33:27.040Z,97077
2022-11-12T10:34:34.711Z,97078
2022-11-12T10:35:43.361Z,97076
2022-11-12T10:36:54.910Z,97076
2022-11-12T10:38:00.664Z,97074
2022-11-12T10:39:10.401Z,97070
2022-11-12T10:40:19.056Z,97071
2022-11-12T10:41:27.722Z,97069
2022-11-12T10:42:37.378Z,97070
2022-11-12T10:43:46.028Z,97067
2022-11-12T10:44:54.753Z,97066
2022-11-12T10:46:04.412Z,97068
2022-11-12T10:47:14.094Z,97071
2022-11-12T10:48:27.140Z,97072
2022-11-12T10:49:34.394Z,97071
2022-11-12T10:50:44.191Z,97063
2022-11-12T10:51:53.886Z,97066
2022-11-12T10:53:02.555Z,97067
2022-11-12T10:54:11.220Z,97065
2022-11-12T10:55:19.904Z,97061
2022-11-12T10:56:28.585Z,97057
2022-11-12T10:57:38.257Z,97056
2022-11-12T10:58:47.911Z,97058
2022-11-12T10:59:57.628Z,97057
2022-11-12T11:01:07.334Z,97057
2022-11-12T11:02:15.247Z,97058
2022-11-12T11:03:23.720Z,97060
2022-11-12T11:04:32.508Z,97057
2022-11-12T11:05:42.121Z,97057
2022-11-12T11:06:51.806Z,97060
2022-11-12T11:07:59.470Z,97055
2022-11-12T11:09:08.121Z,97055
2022-11-12T11:10:17.787Z,97049
2022-11-12T11:11:26.449Z,97050
2022-11-12T11:12:35.108Z,97043
2022-11-12T11:13:44.796Z,97044
2022-11-12T11:14:54.450Z,97046
2022-11-12T11:16:04.129Z,97042
2022-11-12T11:17:12.797Z,97041
2022-11-12T11:18:21.479Z,97035
2022-11-12T11:19:30.158Z,97038
2022-11-12T11:20:38.945Z,97038
2022-11-12T11:21:47.501Z,97039
2022-11-12T11:22:56.175Z,97043
2022-11-12T11:24:05.833Z,97040
2022-11-12T11:25:15.538Z,97040
2022-11-12T11:26:24.197Z,97042
2022-11-12T11:27:31.867Z,97035
2022-11-12T11:28:41.529Z,97029
2022-11-12T11:29:50.231Z,97030
2022-11-12T11:30:59.914Z,97035
2022-11-12T11:32:09.582Z,97034
2022-11-12T11:33:19.414Z,97034
2022-11-12T11:34:29.071Z,97035
2022-11-12T11:35:37.714Z,97035
2022-11-12T11:36:47.517Z,97031
2022-11-12T11:37:58.519Z,97026
2022-11-12T11:39:05.786Z,97026
2022-11-12T11:40:14.546Z,97024
2022-11-12T11:41:23.171Z,97019
2022-11-12T11:42:32.925Z,97024
2022-11-12T11:43:42.717Z,97022
2022-11-12T11:44:50.312Z,97026
2022-11-12T11:45:58.977Z,97016
2022-11-12T11:47:08.634Z,97018
2022-11-12T11:48:16.332Z,97017
2022-11-12T11:49:26.013Z,97016
2022-11-12T11:50:34.684Z,97017
2022-11-12T11:51:44.355Z,97012
2022-11-12T11:52:54.191Z,97009
2022-11-12T11:54:03.882Z,97009
2022-11-12T11:55:12.548Z,97003
2022-11-12T11:56:22.279Z,97004
2022-11-12T11:57:31.948Z,97002
2022-11-12T11:58:40.605Z,97003
2022-11-12T11:59:49.311Z,97007
2022-11-12T12:00:58.025Z,97006
2022-11-12T12:02:07.759Z,97007
2022-11-12T12:03:15.452Z,97007
2022-11-12T12:04:25.139Z,96999
2022-11-12T12:05:34.879Z,97004
2022-11-12T12:06:43.123Z,97008
2022-11-12T12:07:51.971Z,97002
2022-11-12T12:09:01.817Z,97001
2022-11-12T12:10:11.462Z,96994
2022-11-12T12:11:21.248Z,96994
2022-11-12T12:12:28.903Z,97001
2022-11-12T12:13:38.579Z,97003
2022-11-12T12:14:47.317Z,97000
2022-11-12T12:15:57.051Z,97000
2022-11-12T12:17:06.722Z,96995
2022-11-12T12:18:14.444Z,96999
2022-11-12T12:19:23.304Z,97000
2022-11-12T12:20:33.005Z,97001
2022-11-12T12:21:41.656Z,96994
2022-11-12T12:22:51.553Z,96997
2022-11-12T12:23:59.224Z,96999
2022-11-12T12:25:09.056Z,96995
2022-11-12T12:26:18.667Z,96996
2022-11-12T12:27:26.319Z,96995
2022-11-12T12:28:35.059Z,96992
2022-11-12T12:29:44.804Z,96997
2022-11-12T12:30:53.482Z,96992
2022-11-12T12:32:03.223Z,96993
2022-11-12T12:33:11.947Z,96990
2022-11-12T12:34:21.704Z,96991
2022-11-12T12:35:31.392Z,96992
2022-11-12T12:36:41.085Z,96986
2022-11-12T12:37:49.776Z,96985
2022-11-12T12:38:59.474Z,96980
2022-11-12T12:40:08.168Z,96983
2022-11-12T12:41:17.987Z,96977
2022-11-12T12:42:27.644Z,96972
2022-11-12T12:43:36.309Z,96968
2022-11-12T12:44:45.995Z,96970
2022-11-12T12:45:54.714Z,96972
2022-11-12T12:47:03.432Z,96975
2022-11-12T12:48:13.107Z,96969
2022-11-12T12:49:21.816Z,96964
2022-11-12T12:50:31.527Z,96963
2022-11-12T12:51:39.369Z,96956
2022-11-12T12:52:49.027Z,96956
2022-11-12T12:53:58.700Z,96951
2022-11-12T12:55:07.366Z,96950
2022-11-12T12:56:17.258Z,96946
2022-11-12T12:57:26.270Z,96942
2022-11-12T12:58:34.924Z,96945
2022-11-12T12:59:44.630Z,96943
2022-11-12T13:00:53.378Z,96946
2022-11-12T13:02:02.025Z,96946
2022-11-12T13:03:11.753Z,96946
2022-11-12T13:04:20.421Z,96944
2022-11-12T13:05:29.099Z,96937
2022-11-12T13:06:37.939Z,96945
2022-11-12T13:07:46.515Z,96941
2022-11-12T13:08:56.228Z,96943
2022-11-12T13:10:03.892Z,96946
2022-11-12T13:11:13.573Z,96944
2022-11-12T13:12:23.277Z,96937
2022-11-12T13:13:32.786Z,96937
2022-11-12T13:14:40.721Z,96941
2022-11-12T13:15:49.472Z,96940
2022-11-12T13:16:59.136Z,96940
2022-11-12T13:18:12.887Z,96937
2022-11-12T13:19:19.527Z,96940
2022-11-12T13:20:28.256Z,96944
2022-11-12T13:21:38.144Z,96941
2022-11-12T13:22:45.818Z,96940
2022-11-12T13:23:54.479Z,96941
2022-11-12T13:25:04.178Z,96943
2022-11-12T13:26:12.875Z,96941
2022-11-12T13:27:22.542Z,96943
2022-11-12T13:28:30.455Z,96942
2022-11-12T13:29:39.981Z,96943
2022-11-12T13:30:48.561Z,96942
2022-11-12T13:31:57.280Z,96940
2022-11-12T13:33:11.508Z,96941
2022-11-12T13:34:16.656Z,96937
2022-11-12T13:35:24.296Z,96931
2022-11-12T13:36:33.987Z,96932
2022-11-12T13:37:42.702Z,96926
2022-11-12T13:38:51.372Z,96928
2022-11-12T13:40:02.057Z,96926
2022-11-12T13:41:10.714Z,96931
2022-11-12T13:42:20.388Z,96931
2022-11-12T13:43:30.120Z,96934
2022-11-12T13:44:39.815Z,96926
2022-11-12T13:45:49.612Z,96929
2022-11-12T13:46:59.176Z,96926
2022-11-12T13:48:07.840Z,96937
2022-11-12T13:49:17.584Z,96929
2022-11-12T13:50:26.247Z,96929
2022-11-12T13:51:35.890Z,96928
2022-11-12T13:52:44.578Z,96926
2022-11-12T13:53:53.236Z,96925
2022-11-12T13:55:03.106Z,96921
2022-11-12T13:56:11.783Z,96921
2022-11-12T13:57:20.463Z,96916
2022-11-12T13:58:30.297Z,96920
2022-11-12T13:59:37.801Z,96916
2022-11-12T14:00:46.567Z,96914
2022-11-12T14:01:56.354Z,96913
2022-11-12T14:03:04.895Z,96914
2022-11-12T14:04:14.642Z,96917
2022-11-12T14:05:24.295Z,96918
2022-11-12T14:06:33.976Z,96912
2022-11-12T14:07:43.675Z,96917
2022-11-12T14:08:51.334Z,96915
2022-11-12T14:10:01.034Z,96913
2022-11-12T14:11:09.687Z,96913
2022-11-12T14:12:20.185Z,96912
2022-11-12T14:13:28.849Z,96906
2022-11-12T14:14:38.533Z,96912
2022-11-12T14:15:48.236Z,96907
2022-11-12T14:16:56.958Z,96905
2022-11-12T14:18:06.781Z,96902
2022-11-12T14:19:16.356Z,96905
2022-11-12T14:20:25.019Z,96905
2022-11-12T14:21:34.682Z,96900
2022-11-12T14:22:43.390Z,96900
2022-11-12T14:23:52.104Z,96902
2022-11-12T14:25:01.842Z,96900
2022-11-12T14:26:09.514Z,96897
2022-11-12T14:27:18.243Z,96895
2022-11-12T14:28:28.317Z,96898
2022-11-12T14:29:39.954Z,96896
2022-11-12T14:30:47.354Z,96897
2022-11-12T14:31:56.105Z,96890
2022-11-12T14:33:04.825Z,96888
2022-11-12T14:34:14.629Z,96886
2022-11-12T14:35:24.246Z,96886
2022-11-12T14:36:33.938Z,96883
2022-11-12T14:37:44.074Z,96887
2022-11-12T14:38:52.375Z,96880
2022-11-12T14:40:01.056Z,96878
2022-11-12T14:41:09.730Z,96877
2022-11-12T14:42:18.449Z,96874
2022-11-12T14:43:28.499Z,96876
2022-11-12T14:44:36.859Z,96871
2022-11-12T14:45:46.563Z,96872
2022-11-12T14:46:56.271Z,96872
2022-11-12T14:48:04.946Z,96871
2022-11-12T14:49:13.708Z,96869
2022-11-12T14:50:23.503Z,96866
2022-11-12T14:51:32.054Z,96866
2022-11-12T14:52:41.782Z,96867
2022-11-12T14:53:49.717Z,96875
2022-11-12T14:54:58.275Z,96867
2022-11-12T14:56:08.259Z,96872
2022-11-12T14:57:17.943Z,96871
2022-11-12T14:58:27.782Z,96866
2022-11-12T14:59:37.461Z,96868
2022-11-12T15:00:47.215Z,96872
2022-11-12T15:02:27.040Z,96865
2022-11-12T15:03:07.528Z,96867
2022-11-12T15:04:16.201Z,96863
2022-11-12T15:05:27.036Z,96869
2022-11-12T15:06:35.630Z,96869